createdAt,value
2018-03-25T00:01:23.631Z,5.24
2018-03-25T00:03:51.270Z,5.08
2018-03-25T00:06:18.866Z,5.06
2018-03-25T00:08:46.500Z,5.06
2018-03-25T00:11:14.123Z,5.07
2018-03-25T00:13:41.723Z,5.04
2018-03-25T00:16:09.345Z,4.91
2018-03-25T00:18:36.935Z,4.75
2018-03-25T00:21:04.798Z,4.54
2018-03-25T00:23:32.471Z,4.54
2018-03-25T00:26:00.074Z,4.62
2018-03-25T00:28:27.704Z,4.55
2018-03-25T00:30:55.310Z,4.61
2018-03-25T00:33:22.928Z,4.48
2018-03-25T00:35:50.532Z,4.51
2018-03-25T00:38:18.554Z,4.55
2018-03-25T00:40:46.228Z,4.61
2018-03-25T00:43:13.826Z,4.56
2018-03-25T00:45:41.524Z,4.60
2018-03-25T00:48:09.204Z,4.52
2018-03-25T00:50:36.913Z,4.57
2018-03-25T00:53:04.525Z,4.50
2018-03-25T00:55:32.116Z,4.46
2018-03-25T00:57:59.824Z,4.35
2018-03-25T01:00:27.509Z,4.34
2018-03-25T01:02:55.325Z,4.37
2018-03-25T01:05:22.916Z,4.43
2018-03-25T01:07:50.596Z,4.33
2018-03-25T01:10:18.300Z,4.32
2018-03-25T01:12:45.988Z,4.30
2018-03-25T01:15:13.731Z,4.22
2018-03-25T01:17:41.407Z,4.22
2018-03-25T01:20:09.097Z,4.22
2018-03-25T01:22:36.797Z,4.18
2018-03-25T01:25:04.488Z,4.16
2018-03-25T01:27:32.188Z,4.17
2018-03-25T01:29:59.860Z,4.10
2018-03-25T01:32:27.562Z,4.08
2018-03-25T01:34:55.264Z,4.12
2018-03-25T01:37:23.013Z,3.99
2018-03-25T01:39:50.696Z,3.96
2018-03-25T01:42:18.388Z,3.85
2018-03-25T01:44:46.095Z,3.99
2018-03-25T01:47:13.808Z,3.94
2018-03-25T01:49:41.488Z,3.94
2018-03-25T01:52:09.171Z,3.97
2018-03-25T01:54:36.864Z,3.96
2018-03-25T01:57:04.537Z,4.03
2018-03-25T01:59:32.249Z,4.04
2018-03-25T02:01:59.931Z,3.99
2018-03-25T02:04:27.623Z,3.96
2018-03-25T02:06:55.317Z,4.05
2018-03-25T02:09:23.003Z,3.98
2018-03-25T02:11:50.773Z,3.89
2018-03-25T02:14:18.447Z,3.79
2018-03-25T02:16:46.147Z,3.72
2018-03-25T02:19:13.820Z,3.72
2018-03-25T02:21:41.534Z,3.69
2018-03-25T02:24:09.234Z,3.70
2018-03-25T02:26:36.916Z,3.67
2018-03-25T02:29:04.609Z,3.63
2018-03-25T02:31:32.281Z,3.63
2018-03-25T02:34:00.028Z,3.59
2018-03-25T02:36:27.712Z,3.66
2018-03-25T02:38:55.413Z,3.71
2018-03-25T02:41:23.090Z,3.71
2018-03-25T02:43:51.079Z,3.73
2018-03-25T02:46:18.761Z,3.72
2018-03-25T02:48:46.458Z,3.65
2018-03-25T02:51:14.162Z,3.54
2018-03-25T02:53:41.844Z,3.62
2018-03-25T02:56:09.544Z,3.56
2018-03-25T02:58:37.225Z,3.48
2018-03-25T03:01:04.966Z,3.42
2018-03-25T03:03:32.644Z,3.41
2018-03-25T03:06:00.373Z,3.36
2018-03-25T03:08:28.063Z,3.45
2018-03-25T03:10:55.775Z,3.39
2018-03-25T03:13:23.488Z,3.44
2018-03-25T03:15:51.235Z,3.30
2018-03-25T03:18:18.958Z,3.24
2018-03-25T03:20:46.649Z,3.28
2018-03-25T03:23:14.332Z,3.29
2018-03-25T03:25:42.004Z,3.32
2018-03-25T03:28:09.704Z,3.27
2018-03-25T03:30:37.382Z,3.30
2018-03-25T03:33:05.080Z,3.13
2018-03-25T03:35:32.764Z,3.07
2018-03-25T03:38:00.480Z,3.10
2018-03-25T03:40:28.157Z,3.04
2018-03-25T03:42:55.861Z,3.03
2018-03-25T03:45:23.535Z,3.03
2018-03-25T03:47:51.263Z,3.02
2018-03-25T03:50:18.951Z,3.15
2018-03-25T03:52:46.685Z,3.09
2018-03-25T03:55:14.356Z,3.09
2018-03-25T03:57:42.027Z,3.05
2018-03-25T04:00:09.742Z,2.98
2018-03-25T04:02:37.434Z,3.02
2018-03-25T04:05:05.146Z,3.14
2018-03-25T04:07:32.827Z,3.11
2018-03-25T04:10:00.520Z,3.14
2018-03-25T04:12:28.266Z,3.15
2018-03-25T04:14:56.209Z,3.08
2018-03-25T04:17:23.960Z,3.10
2018-03-25T04:19:51.628Z,3.14
2018-03-25T04:22:19.312Z,3.02
2018-03-25T04:24:46.991Z,2.93
2018-03-25T04:27:14.690Z,2.87
2018-03-25T04:29:42.363Z,2.88
2018-03-25T04:32:10.063Z,2.93
2018-03-25T04:34:37.739Z,2.98
2018-03-25T04:37:05.439Z,3.00
2018-03-25T04:39:33.145Z,2.93
2018-03-25T04:42:00.885Z,2.96
2018-03-25T04:44:28.575Z,2.93
2018-03-25T04:46:56.257Z,2.92
2018-03-25T04:49:23.954Z,2.81
2018-03-25T04:51:51.633Z,2.76
2018-03-25T04:54:19.732Z,2.86
2018-03-25T04:56:47.418Z,2.88
2018-03-25T04:59:15.094Z,2.77
2018-03-25T05:01:42.783Z,2.82
2018-03-25T05:04:10.446Z,2.80
2018-03-25T05:06:38.159Z,2.76
2018-03-25T05:09:05.829Z,2.74
2018-03-25T05:11:33.779Z,2.63
2018-03-25T05:14:01.464Z,2.66
2018-03-25T05:16:29.193Z,2.69
2018-03-25T05:18:56.873Z,2.73
2018-03-25T05:21:24.566Z,2.73
2018-03-25T05:23:52.256Z,2.59
2018-03-25T05:26:19.926Z,2.58
2018-03-25T05:28:47.612Z,2.65
2018-03-25T05:31:15.281Z,2.63
2018-03-25T05:33:42.984Z,2.61
2018-03-25T05:36:10.684Z,2.67
2018-03-25T05:38:38.390Z,2.77
2018-03-25T05:41:06.064Z,2.83
2018-03-25T05:43:33.776Z,2.84
2018-03-25T05:46:01.458Z,2.83
2018-03-25T05:48:29.164Z,2.86
2018-03-25T05:50:56.840Z,2.95
2018-03-25T05:53:24.535Z,2.84
2018-03-25T05:55:52.216Z,2.96
2018-03-25T05:58:19.947Z,2.98
2018-03-25T06:00:47.624Z,2.99
2018-03-25T06:03:15.324Z,3.07
2018-03-25T06:05:42.996Z,3.16
2018-03-25T06:08:10.706Z,3.25
2018-03-25T06:10:38.380Z,3.35
2018-03-25T06:13:06.091Z,3.28
2018-03-25T06:15:33.767Z,3.23
2018-03-25T06:18:01.457Z,3.23
2018-03-25T06:20:29.142Z,3.29
2018-03-25T06:22:56.860Z,3.48
2018-03-25T06:25:25.152Z,3.56
2018-03-25T06:27:52.841Z,3.54
2018-03-25T06:30:20.541Z,3.56
2018-03-25T06:32:48.208Z,3.72
2018-03-25T06:35:15.907Z,3.83
2018-03-25T06:37:43.582Z,3.87
2018-03-25T06:40:12.954Z,3.95
2018-03-25T06:42:40.632Z,3.91
2018-03-25T06:45:08.317Z,4.01
2018-03-25T06:47:36.020Z,4.04
2018-03-25T06:50:03.703Z,4.18
2018-03-25T06:52:31.407Z,4.09
2018-03-25T06:54:59.084Z,4.22
2018-03-25T06:57:26.816Z,4.19
2018-03-25T06:59:54.484Z,4.32
2018-03-25T07:02:22.157Z,4.31
2018-03-25T07:04:49.847Z,4.42
2018-03-25T07:07:17.518Z,4.50
2018-03-25T07:09:45.225Z,4.63
2018-03-25T07:12:12.891Z,4.80
2018-03-25T07:14:40.485Z,4.86
2018-03-25T07:17:08.097Z,5.05
2018-03-25T07:19:35.700Z,5.07
2018-03-25T07:22:03.464Z,5.18
2018-03-25T07:24:31.059Z,5.29
2018-03-25T07:26:59.400Z,5.36
2018-03-25T07:29:27.113Z,5.53
2018-03-25T07:31:54.647Z,5.58
2018-03-25T07:34:22.273Z,5.65
2018-03-25T07:36:49.887Z,5.78
2018-03-25T07:39:17.796Z,5.73
2018-03-25T07:41:45.482Z,5.90
2018-03-25T07:44:13.076Z,5.99
2018-03-25T07:46:40.701Z,6.03
2018-03-25T07:49:08.295Z,6.16
2018-03-25T07:51:35.924Z,6.23
2018-03-25T07:54:03.517Z,6.07
2018-03-25T07:56:31.249Z,6.36
2018-03-25T07:58:58.855Z,6.49
2018-03-25T08:01:26.444Z,6.57
2018-03-25T08:03:54.130Z,6.63
2018-03-25T08:06:21.691Z,6.61
2018-03-25T08:08:49.311Z,6.71
2018-03-25T08:11:16.901Z,6.81
2018-03-25T08:13:44.877Z,7.06
2018-03-25T08:16:12.481Z,7.13
2018-03-25T08:18:40.110Z,7.16
2018-03-25T08:21:07.741Z,7.17
2018-03-25T08:23:35.336Z,7.32
2018-03-25T08:26:02.995Z,7.29
2018-03-25T08:28:30.589Z,7.39
2018-03-25T08:30:58.520Z,7.54
2018-03-25T08:33:26.108Z,7.38
2018-03-25T08:35:53.709Z,7.15
2018-03-25T08:38:21.335Z,7.41
2018-03-25T08:40:48.932Z,7.45
2018-03-25T08:43:16.561Z,7.61
2018-03-25T08:45:44.164Z,7.72
2018-03-25T08:48:11.790Z,7.89
2018-03-25T08:50:39.390Z,8.05
2018-03-25T08:53:07.393Z,8.04
2018-03-25T08:55:35.004Z,7.98
2018-03-25T08:58:02.613Z,8.13
2018-03-25T09:00:30.232Z,8.16
2018-03-25T09:02:57.843Z,8.03
2018-03-25T09:05:25.453Z,8.10
2018-03-25T09:07:53.045Z,8.08
2018-03-25T09:10:20.852Z,8.38
2018-03-25T09:12:48.435Z,8.44
2018-03-25T09:15:16.028Z,8.64
2018-03-25T09:17:43.652Z,8.75
2018-03-25T09:20:11.252Z,8.89
2018-03-25T09:22:38.863Z,8.95
2018-03-25T09:25:06.458Z,8.62
2018-03-25T09:27:34.414Z,8.81
2018-03-25T09:30:02.021Z,9.17
2018-03-25T09:32:29.624Z,9.41
2018-03-25T09:34:57.243Z,9.54
2018-03-25T09:37:24.845Z,9.45
2018-03-25T09:39:52.462Z,9.08
2018-03-25T09:42:20.048Z,9.45
2018-03-25T09:44:47.701Z,9.76
2018-03-25T09:47:15.296Z,9.93
2018-03-25T09:49:42.884Z,9.96
2018-03-25T09:52:10.515Z,10.11
2018-03-25T09:54:38.117Z,10.36
2018-03-25T09:57:05.741Z,10.40
2018-03-25T09:59:33.344Z,10.27
2018-03-25T10:02:04.812Z,10.24
2018-03-25T10:04:32.408Z,10.30
2018-03-25T10:07:00.216Z,10.37
2018-03-25T10:09:27.820Z,10.14
2018-03-25T10:11:55.412Z,10.10
2018-03-25T10:14:23.036Z,10.50
2018-03-25T10:16:50.646Z,10.67
2018-03-25T10:19:18.264Z,10.63
2018-03-25T10:21:45.862Z,10.72
2018-03-25T10:24:13.528Z,10.48
2018-03-25T10:26:41.147Z,10.99
2018-03-25T10:29:08.739Z,10.93
2018-03-25T10:31:36.377Z,10.84
2018-03-25T10:34:03.985Z,10.79
2018-03-25T10:36:31.844Z,11.13
2018-03-25T10:38:59.450Z,11.32
2018-03-25T10:41:27.399Z,11.39
2018-03-25T10:43:55.008Z,11.64
2018-03-25T10:46:22.608Z,11.30
2018-03-25T10:48:50.237Z,11.31
2018-03-25T10:51:17.840Z,11.37
2018-03-25T10:53:45.550Z,11.59
2018-03-25T10:56:13.165Z,11.74
2018-03-25T10:58:40.966Z,11.86
2018-03-25T11:01:08.594Z,11.89
2018-03-25T11:03:36.199Z,11.89
2018-03-25T11:06:03.824Z,11.85
2018-03-25T11:08:31.514Z,12.02
2018-03-25T11:10:59.135Z,12.15
2018-03-25T11:13:26.745Z,12.30
2018-03-25T11:15:54.864Z,12.45
2018-03-25T11:18:22.472Z,12.18
2018-03-25T11:20:50.067Z,12.39
2018-03-25T11:23:17.685Z,12.59
2018-03-25T11:25:45.284Z,11.99
2018-03-25T11:28:12.914Z,12.31
2018-03-25T11:30:40.520Z,12.69
2018-03-25T11:33:08.415Z,12.86
2018-03-25T11:35:36.027Z,12.64
2018-03-25T11:38:03.627Z,12.71
2018-03-25T11:40:31.289Z,12.98
2018-03-25T11:42:58.903Z,12.72
2018-03-25T11:45:26.526Z,12.70
2018-03-25T11:47:54.173Z,12.92
2018-03-25T11:50:22.049Z,12.86
2018-03-25T11:52:49.701Z,12.84
2018-03-25T11:55:17.473Z,13.18
2018-03-25T11:57:45.080Z,12.76
2018-03-25T12:00:12.690Z,13.03
2018-03-25T12:02:40.317Z,13.12
2018-03-25T12:05:07.912Z,12.97
2018-03-25T12:07:35.534Z,13.05
2018-03-25T12:10:03.183Z,12.75
2018-03-25T12:12:30.824Z,12.68
2018-03-25T12:14:58.433Z,12.62
2018-03-25T12:17:26.048Z,12.91
2018-03-25T12:19:53.690Z,13.33
2018-03-25T12:22:21.292Z,13.52
2018-03-25T12:24:48.916Z,13.83
2018-03-25T12:27:16.517Z,13.96
2018-03-25T12:29:44.227Z,14.21
2018-03-25T12:32:11.852Z,13.94
2018-03-25T12:34:39.491Z,14.04
2018-03-25T12:37:07.118Z,14.15
2018-03-25T12:39:35.493Z,14.74
2018-03-25T12:42:03.121Z,15.72
2018-03-25T12:44:30.726Z,16.67
2018-03-25T12:46:58.471Z,17.02
2018-03-25T12:49:26.097Z,17.96
2018-03-25T12:51:53.705Z,18.04
2018-03-25T12:54:21.350Z,17.11
2018-03-25T12:56:48.948Z,18.30
2018-03-25T12:59:16.689Z,17.83
2018-03-25T13:01:44.336Z,17.49
2018-03-25T13:04:12.009Z,18.16
2018-03-25T13:06:39.636Z,17.74
2018-03-25T13:09:07.337Z,16.85
2018-03-25T13:11:34.968Z,17.08
2018-03-25T13:14:02.574Z,15.91
2018-03-25T13:16:30.210Z,15.54
2018-03-25T13:18:57.853Z,17.51
2018-03-25T13:21:25.460Z,18.15
2018-03-25T13:23:53.107Z,17.03
2018-03-25T13:26:20.714Z,17.28
2018-03-25T13:28:48.530Z,17.33
2018-03-25T13:31:16.135Z,17.25
2018-03-25T13:33:43.745Z,17.07
2018-03-25T13:36:11.369Z,18.40
2018-03-25T13:38:38.972Z,19.55
2018-03-25T13:41:06.645Z,20.32
2018-03-25T13:43:34.208Z,20.42
2018-03-25T13:46:02.163Z,19.07
2018-03-25T13:48:29.784Z,18.53
2018-03-25T13:50:57.388Z,18.51
2018-03-25T13:53:25.000Z,19.44
2018-03-25T13:55:52.619Z,19.66
2018-03-25T13:58:20.241Z,20.21
2018-03-25T14:00:47.838Z,19.50
2018-03-25T14:03:15.701Z,19.61
2018-03-25T14:05:43.295Z,19.97
2018-03-25T14:08:10.890Z,19.59
2018-03-25T14:10:38.521Z,19.38
2018-03-25T14:13:06.126Z,18.82
2018-03-25T14:15:33.755Z,17.90
2018-03-25T14:18:01.347Z,17.76
2018-03-25T14:20:29.128Z,16.42
2018-03-25T14:22:56.728Z,16.30
2018-03-25T14:25:24.358Z,16.07
2018-03-25T14:27:51.984Z,16.10
2018-03-25T14:30:19.597Z,14.76
2018-03-25T14:32:47.208Z,14.94
2018-03-25T14:35:14.809Z,15.01
2018-03-25T14:37:42.663Z,14.72
2018-03-25T14:40:10.261Z,14.37
2018-03-25T14:42:37.864Z,14.22
2018-03-25T14:45:05.488Z,14.13
2018-03-25T14:47:33.093Z,14.04
2018-03-25T14:50:00.711Z,14.04
2018-03-25T14:52:28.323Z,13.90
2018-03-25T14:54:55.941Z,13.79
2018-03-25T14:57:23.557Z,13.60
2018-03-25T14:59:51.337Z,13.55
2018-03-25T15:02:18.936Z,13.51
2018-03-25T15:04:46.641Z,13.25
2018-03-25T15:07:14.283Z,13.37
2018-03-25T15:09:41.892Z,13.73
2018-03-25T15:12:09.515Z,13.54
2018-03-25T15:14:37.116Z,13.72
2018-03-25T15:17:04.800Z,13.68
2018-03-25T15:19:32.373Z,13.43
2018-03-25T15:21:59.991Z,13.47
2018-03-25T15:24:27.604Z,13.66
2018-03-25T15:26:55.249Z,13.67
2018-03-25T15:29:22.856Z,13.66
2018-03-25T15:31:50.483Z,13.66
2018-03-25T15:34:18.079Z,13.73
2018-03-25T15:36:45.716Z,13.40
2018-03-25T15:39:13.335Z,13.35
2018-03-25T15:41:40.981Z,13.57
2018-03-25T15:44:08.582Z,13.24
2018-03-25T15:46:36.373Z,13.08
2018-03-25T15:49:04.022Z,13.34
2018-03-25T15:51:31.627Z,13.51
2018-03-25T15:53:59.244Z,13.58
2018-03-25T15:56:26.836Z,13.45
2018-03-25T15:58:54.461Z,13.52
2018-03-25T16:01:22.057Z,13.42
2018-03-25T16:03:49.678Z,13.51
2018-03-25T16:06:17.273Z,13.53
2018-03-25T16:08:44.909Z,13.40
2018-03-25T16:11:12.508Z,13.42
2018-03-25T16:13:40.151Z,13.42
2018-03-25T16:16:07.966Z,13.26
2018-03-25T16:18:35.592Z,13.18
2018-03-25T16:21:03.260Z,13.27
2018-03-25T16:23:30.886Z,13.26
2018-03-25T16:25:58.491Z,13.26
2018-03-25T16:28:26.118Z,13.02
2018-03-25T16:30:53.726Z,13.01
2018-03-25T16:33:21.553Z,13.05
2018-03-25T16:35:49.158Z,12.98
2018-03-25T16:38:16.769Z,12.98
2018-03-25T16:40:44.410Z,12.88
2018-03-25T16:43:12.007Z,12.87
2018-03-25T16:45:39.628Z,12.87
2018-03-25T16:48:07.341Z,12.90
2018-03-25T16:50:35.316Z,12.79
2018-03-25T16:53:02.927Z,12.57
2018-03-25T16:55:30.548Z,12.43
2018-03-25T16:57:58.175Z,12.46
2018-03-25T17:00:25.763Z,12.43
2018-03-25T17:02:53.383Z,12.52
2018-03-25T17:05:20.993Z,12.27
2018-03-25T17:07:49.159Z,12.34
2018-03-25T17:10:16.770Z,12.38
2018-03-25T17:12:44.373Z,12.29
2018-03-25T17:15:12.017Z,12.33
2018-03-25T17:17:39.636Z,12.28
2018-03-25T17:20:07.291Z,12.19
2018-03-25T17:22:34.981Z,12.32
2018-03-25T17:25:02.889Z,12.13
2018-03-25T17:27:30.490Z,12.27
2018-03-25T17:29:58.104Z,12.17
2018-03-25T17:32:25.719Z,12.05
2018-03-25T17:34:53.320Z,12.02
2018-03-25T17:37:20.931Z,12.05
2018-03-25T17:39:48.526Z,11.94
2018-03-25T17:42:16.312Z,11.84
2018-03-25T17:44:43.911Z,11.83
2018-03-25T17:47:11.516Z,11.83
2018-03-25T17:49:39.142Z,11.62
2018-03-25T17:52:06.745Z,11.69
2018-03-25T17:54:34.370Z,11.66
2018-03-25T17:57:01.974Z,11.75
2018-03-25T17:59:29.576Z,11.78
2018-03-25T18:01:57.201Z,11.76
2018-03-25T18:04:24.819Z,11.70
2018-03-25T18:06:52.440Z,11.62
2018-03-25T18:09:20.036Z,11.60
2018-03-25T18:11:47.632Z,11.45
2018-03-25T18:14:15.243Z,11.52
2018-03-25T18:16:42.855Z,11.47
2018-03-25T18:19:10.490Z,11.49
2018-03-25T18:21:38.098Z,11.34
2018-03-25T18:24:05.693Z,11.12
2018-03-25T18:26:33.321Z,11.19
2018-03-25T18:29:00.940Z,11.06
2018-03-25T18:31:28.756Z,11.03
2018-03-25T18:33:56.366Z,11.07
2018-03-25T18:36:23.964Z,11.04
2018-03-25T18:38:51.599Z,10.98
2018-03-25T18:41:19.208Z,10.90
2018-03-25T18:43:46.847Z,10.94
2018-03-25T18:46:14.446Z,10.96
2018-03-25T18:48:42.286Z,10.90
2018-03-25T18:51:09.885Z,10.82
2018-03-25T18:53:37.493Z,10.78
2018-03-25T18:56:05.156Z,10.71
2018-03-25T18:58:32.768Z,10.67
2018-03-25T19:01:00.392Z,10.69
2018-03-25T19:03:27.996Z,10.61
2018-03-25T19:05:55.631Z,10.45
2018-03-25T19:08:23.258Z,10.44
2018-03-25T19:10:50.864Z,10.34
2018-03-25T19:13:18.498Z,10.09
2018-03-25T19:15:46.100Z,10.06
2018-03-25T19:18:13.784Z,9.85
2018-03-25T19:20:41.398Z,9.56
2018-03-25T19:23:08.995Z,9.73
2018-03-25T19:25:36.612Z,9.69
2018-03-25T19:28:04.220Z,9.66
2018-03-25T19:30:31.844Z,9.68
2018-03-25T19:33:00.242Z,9.69
2018-03-25T19:35:27.892Z,9.68
2018-03-25T19:37:55.485Z,9.60
2018-03-25T19:40:23.084Z,9.57
2018-03-25T19:42:50.708Z,9.53
2018-03-25T19:45:18.294Z,9.55
2018-03-25T19:47:45.914Z,9.46
2018-03-25T19:50:13.532Z,9.33
2018-03-25T19:52:41.184Z,9.27
2018-03-25T19:55:08.791Z,9.24
2018-03-25T19:57:36.417Z,9.21
2018-03-25T20:00:04.044Z,9.10
2018-03-25T20:02:31.650Z,9.09
2018-03-25T20:04:59.361Z,9.10
2018-03-25T20:07:26.961Z,8.99
2018-03-25T20:09:54.972Z,8.90
2018-03-25T20:12:22.598Z,8.81
2018-03-25T20:14:50.206Z,8.76
2018-03-25T20:17:17.976Z,8.72
2018-03-25T20:19:45.560Z,8.59
2018-03-25T20:22:13.216Z,8.52
2018-03-25T20:24:40.813Z,8.50
2018-03-25T20:27:08.781Z,8.44
2018-03-25T20:29:36.363Z,8.40
2018-03-25T20:32:03.963Z,8.35
2018-03-25T20:34:31.588Z,8.31
2018-03-25T20:36:59.194Z,8.25
2018-03-25T20:39:26.813Z,8.19
2018-03-25T20:41:54.404Z,8.18
2018-03-25T20:44:22.038Z,8.17
2018-03-25T20:46:49.634Z,8.14
2018-03-25T20:49:17.224Z,8.15
2018-03-25T20:51:44.835Z,8.18
2018-03-25T20:54:12.425Z,8.07
2018-03-25T20:56:40.052Z,8.00
2018-03-25T20:59:07.686Z,7.99
2018-03-25T21:01:35.528Z,8.00
2018-03-25T21:04:03.141Z,7.97
2018-03-25T21:06:30.736Z,7.99
2018-03-25T21:08:58.360Z,7.92
2018-03-25T21:11:25.962Z,7.89
2018-03-25T21:13:53.629Z,7.79
2018-03-25T21:16:21.236Z,7.63
2018-03-25T21:18:48.847Z,7.59
2018-03-25T21:21:16.444Z,7.53
2018-03-25T21:23:44.296Z,7.55
2018-03-25T21:26:11.883Z,7.62
2018-03-25T21:28:39.517Z,7.58
2018-03-25T21:31:07.244Z,7.55
2018-03-25T21:33:34.845Z,7.49
2018-03-25T21:36:02.463Z,7.40
2018-03-25T21:38:30.050Z,7.36
2018-03-25T21:40:57.695Z,7.32
2018-03-25T21:43:25.284Z,7.20
2018-03-25T21:45:52.888Z,7.13
2018-03-25T21:48:20.505Z,7.14
2018-03-25T21:50:48.141Z,7.00
2018-03-25T21:53:15.777Z,6.99
2018-03-25T21:55:43.382Z,6.87
2018-03-25T21:58:11.252Z,6.92
2018-03-25T22:00:38.851Z,6.99
2018-03-25T22:03:06.435Z,6.95
2018-03-25T22:05:34.076Z,6.85
2018-03-25T22:08:01.678Z,6.90
2018-03-25T22:10:29.296Z,6.94
2018-03-25T22:12:56.884Z,6.81
2018-03-25T22:15:24.885Z,6.75
2018-03-25T22:17:52.506Z,6.72
2018-03-25T22:20:20.143Z,6.67
2018-03-25T22:22:47.765Z,6.59
2018-03-25T22:25:15.358Z,6.56
2018-03-25T22:27:42.975Z,6.52
2018-03-25T22:30:10.566Z,6.44
2018-03-25T22:32:38.425Z,6.41
2018-03-25T22:35:06.019Z,6.38
2018-03-25T22:37:33.610Z,6.40
2018-03-25T22:40:01.245Z,6.30
2018-03-25T22:42:28.989Z,6.24
2018-03-25T22:44:56.633Z,6.27
2018-03-25T22:47:24.240Z,6.21
2018-03-25T22:49:52.269Z,6.13
2018-03-25T22:52:19.872Z,6.21
2018-03-25T22:54:47.460Z,6.22
2018-03-25T22:57:15.092Z,6.22
2018-03-25T22:59:42.815Z,6.17
2018-03-25T23:02:10.501Z,5.04
2018-03-25T23:04:38.087Z,5.39
2018-03-25T23:07:05.912Z,5.60
2018-03-25T23:09:33.507Z,5.40
2018-03-25T23:12:01.099Z,5.56
2018-03-25T23:14:28.704Z,5.48
2018-03-25T23:16:56.338Z,5.53
2018-03-25T23:19:23.928Z,5.48
2018-03-25T23:21:51.515Z,5.54
2018-03-25T23:24:19.543Z,5.62
2018-03-25T23:26:47.140Z,5.75
2018-03-25T23:29:14.735Z,5.67
2018-03-25T23:31:42.356Z,5.64
2018-03-25T23:34:09.953Z,5.55
2018-03-25T23:36:37.568Z,5.48
2018-03-25T23:39:05.168Z,5.46
2018-03-25T23:41:32.791Z,5.35
2018-03-25T23:44:00.382Z,5.42
2018-03-25T23:46:27.995Z,5.39
2018-03-25T23:48:55.623Z,5.44
2018-03-25T23:51:23.206Z,5.43
2018-03-25T23:53:50.824Z,5.42
2018-03-25T23:56:18.411Z,5.38
2018-03-25T23:58:46.232Z,5.36
